Time;durP1;ratioP1;P1;durP2;ratioP2;P2;SDS_P1;SDS_P2;PMS_P1;PMS_P2;Temp;Humidity;BMP_temperature;BMP_pressure;BME280_temperature;BME280_humidity;BME280_pressure;Samples;Min_cycle;Max_cycle;Signal;HPM_P1;HPM_P2
2023/04/23 00:02:28;;;;;;;46.00;30.70;;;10.20;99.90;;;;;;5043107;28;20366;-35
2023/04/23 00:04:56;;;;;;;44.70;31.17;;;10.20;99.90;;;;;;5042939;28;20471;-34
2023/04/23 00:07:22;;;;;;;46.35;32.47;;;10.20;99.90;;;;;;5042990;28;20041;-33
2023/04/23 00:09:51;;;;;;;45.15;31.70;;;10.20;99.90;;;;;;5043113;28;20039;-37
2023/04/23 00:12:17;;;;;;;47.83;34.00;;;10.20;99.90;;;;;;5042701;28;20032;-34
2023/04/23 00:14:43;;;;;;;47.47;32.40;;;10.20;99.90;;;;;;5042958;28;20025;-34
2023/04/23 00:17:08;;;;;;;43.78;32.15;;;10.20;99.90;;;;;;5042854;28;20078;-34
2023/04/23 00:19:34;;;;;;;45.58;31.27;;;10.20;99.90;;;;;;5043027;28;20024;-34
2023/04/23 00:22:00;;;;;;;46.70;31.63;;;10.20;99.90;;;;;;5043144;28;20057;-34
2023/04/23 00:24:26;;;;;;;47.50;31.77;;;10.10;99.90;;;;;;5031869;28;20108;-33
2023/04/23 00:26:52;;;;;;;44.13;30.55;;;10.10;99.90;;;;;;5042240;28;20159;-34
2023/04/23 00:29:18;;;;;;;52.20;34.38;;;10.10;99.90;;;;;;5043260;28;20033;-35
2023/04/23 00:31:43;;;;;;;49.25;33.08;;;10.10;99.90;;;;;;5042550;28;20837;-34
2023/04/23 00:34:09;;;;;;;49.17;32.80;;;10.10;99.90;;;;;;5041847;28;20039;-33
2023/04/23 00:36:34;;;;;;;47.70;32.47;;;10.10;99.90;;;;;;5041936;28;20017;-34
2023/04/23 00:39:00;;;;;;;46.80;31.25;;;10.00;99.90;;;;;;5042641;28;20025;-34
2023/04/23 00:41:29;;;;;;;48.72;32.15;;;10.00;99.90;;;;;;5041933;28;20495;-33
2023/04/23 00:43:56;;;;;;;45.97;30.17;;;10.00;99.90;;;;;;5042161;28;20021;-34
2023/04/23 00:46:24;;;;;;;45.95;30.95;;;10.00;99.90;;;;;;5023213;28;20421;-34
2023/04/23 00:48:51;;;;;;;48.53;31.75;;;9.90;99.90;;;;;;5034850;28;20032;-33
2023/04/23 00:51:16;;;;;;;48.33;32.28;;;9.90;99.90;;;;;;5042600;28;20608;-33
2023/04/23 00:53:42;;;;;;;47.83;32.50;;;9.90;99.90;;;;;;5041751;28;20040;-34
2023/04/23 00:56:08;;;;;;;49.72;32.53;;;9.90;99.90;;;;;;5042104;28;20033;-35
2023/04/23 00:58:35;;;;;;;50.60;33.17;;;9.80;99.90;;;;;;5042166;28;20132;-33
2023/04/23 01:01:03;;;;;;;47.58;32.10;;;9.80;99.90;;;;;;5042084;28;20029;-34
2023/04/23 01:03:30;;;;;;;49.00;32.47;;;9.70;99.90;;;;;;5042079;28;20041;-34
2023/04/23 01:05:57;;;;;;;50.33;33.40;;;9.70;99.90;;;;;;5042757;28;20025;-34
2023/04/23 01:08:25;;;;;;;47.50;32.28;;;9.70;99.90;;;;;;5041859;28;20044;-34
2023/04/23 01:10:52;;;;;;;50.95;33.55;;;9.70;99.90;;;;;;5041724;28;20465;-34
2023/04/23 01:13:17;;;;;;;54.47;35.58;;;9.70;99.90;;;;;;5041455;28;20101;-33
2023/04/23 01:15:44;;;;;;;53.65;34.42;;;9.70;99.90;;;;;;5040688;28;20025;-34
2023/04/23 01:18:10;;;;;;;48.30;31.95;;;9.70;99.90;;;;;;5041890;28;20491;-35
2023/04/23 01:20:36;;;;;;;55.40;35.08;;;9.70;99.90;;;;;;5041406;28;20025;-34
2023/04/23 01:23:03;;;;;;;55.30;35.28;;;9.70;99.90;;;;;;5040970;28;20104;-33
2023/04/23 01:25:28;;;;;;;56.17;35.10;;;9.70;99.90;;;;;;5041443;28;20029;-33
2023/04/23 01:27:56;;;;;;;55.63;33.97;;;9.70;99.90;;;;;;5040921;28;20110;-33
2023/04/23 01:30:22;;;;;;;54.13;34.95;;;9.70;99.90;;;;;;5040784;28;20094;-34
2023/04/23 01:32:49;;;;;;;50.13;33.63;;;9.80;99.90;;;;;;5041072;28;20118;-33
2023/04/23 01:35:14;;;;;;;50.88;33.08;;;9.80;99.90;;;;;;5041450;28;20013;-34
2023/04/23 01:37:41;;;;;;;53.28;34.13;;;9.90;99.90;;;;;;5040547;28;20036;-33
2023/04/23 01:40:07;;;;;;;48.08;31.00;;;9.90;99.90;;;;;;5040591;28;20052;-34
2023/04/23 01:42:33;;;;;;;53.72;33.28;;;10.00;99.90;;;;;;5041338;28;20144;-34
2023/04/23 01:45:00;;;;;;;55.13;33.70;;;10.00;99.90;;;;;;5040123;28;20029;-34
2023/04/23 01:47:29;;;;;;;51.55;32.83;;;10.00;99.90;;;;;;5041304;28;20033;-35
2023/04/23 01:49:57;;;;;;;50.30;31.45;;;9.90;99.90;;;;;;5041046;28;20048;-35
2023/04/23 01:52:23;;;;;;;52.65;33.10;;;9.90;99.90;;;;;;5030340;28;20032;-35
2023/04/23 01:54:49;;;;;;;53.15;33.65;;;9.90;99.90;;;;;;5041170;28;20074;-39
2023/04/23 01:57:25;;;;;;;48.15;31.77;;;9.90;99.90;;;;;;5040230;28;20158;-35
2023/04/23 02:00:02;;;;;;;51.88;32.67;;;9.80;99.90;;;;;;5040975;28;20021;-34
2023/04/23 02:02:28;;;;;;;48.83;30.60;;;9.80;99.90;;;;;;5041051;28;20029;-35
2023/04/23 02:04:55;;;;;;;47.85;30.08;;;9.70;99.90;;;;;;5040073;28;20028;-35
2023/04/23 02:07:20;;;;;;;47.70;28.23;;;9.70;99.90;;;;;;5040800;28;20107;-34
2023/04/23 02:09:46;;;;;;;48.80;31.27;;;9.70;99.90;;;;;;5040300;28;20023;-33
2023/04/23 02:12:11;;;;;;;50.05;30.42;;;9.70;99.90;;;;;;5039710;28;20040;-34
2023/04/23 02:14:37;;;;;;;50.00;30.35;;;9.70;99.90;;;;;;5041543;28;20029;-34
2023/04/23 02:17:03;;;;;;;47.42;29.88;;;9.70;99.90;;;;;;5040876;28;20029;-35
2023/04/23 02:19:33;;;;;;;46.45;28.88;;;9.70;99.90;;;;;;5040374;28;20067;-34
2023/04/23 02:22:01;;;;;;;46.53;28.15;;;9.70;99.90;;;;;;5040483;28;20036;-35
2023/04/23 02:24:27;;;;;;;47.53;30.60;;;9.80;99.90;;;;;;5040703;28;20029;-33
2023/04/23 02:26:52;;;;;;;50.58;30.20;;;9.80;99.90;;;;;;5039408;28;20514;-34
2023/04/23 02:29:18;;;;;;;49.03;30.15;;;9.80;99.90;;;;;;5041252;28;20083;-35
2023/04/23 02:31:43;;;;;;;46.90;29.92;;;9.90;99.90;;;;;;5041278;28;20029;-34
2023/04/23 02:34:09;;;;;;;45.80;29.45;;;9.90;99.90;;;;;;5040151;28;20361;-33
2023/04/23 02:36:35;;;;;;;48.20;30.23;;;9.90;99.90;;;;;;5040499;28;20014;-33
2023/04/23 02:39:00;;;;;;;49.22;30.58;;;10.00;99.90;;;;;;5041277;28;20028;-34
2023/04/23 02:41:26;;;;;;;46.08;29.13;;;9.90;99.90;;;;;;5040070;28;20128;-34
2023/04/23 02:43:52;;;;;;;49.10;30.88;;;9.90;99.90;;;;;;5040244;28;20033;-33
2023/04/23 02:46:19;;;;;;;49.53;30.38;;;9.80;99.90;;;;;;5041024;28;20064;-34
2023/04/23 02:48:45;;;;;;;49.30;30.02;;;9.80;99.90;;;;;;5040380;28;20116;-34
2023/04/23 02:51:12;;;;;;;47.92;31.50;;;9.70;99.90;;;;;;5040771;28;20025;-34
2023/04/23 02:53:38;;;;;;;50.63;30.95;;;9.70;99.90;;;;;;5039578;28;20071;-34
2023/04/23 02:56:03;;;;;;;46.38;29.77;;;9.80;99.90;;;;;;5040507;28;20401;-35
2023/04/23 02:58:30;;;;;;;44.75;28.38;;;9.80;99.90;;;;;;5040623;28;20511;-34
2023/04/23 03:00:56;;;;;;;44.13;28.40;;;9.80;99.90;;;;;;5043456;28;20025;-33
2023/04/23 03:03:25;;;;;;;46.00;28.70;;;9.90;99.90;;;;;;5044468;28;20031;-34
2023/04/23 03:05:54;;;;;;;45.15;28.75;;;9.90;99.90;;;;;;5043985;28;20032;-34
2023/04/23 03:08:19;;;;;;;43.88;28.08;;;9.80;99.90;;;;;;5043665;28;20028;-35
2023/04/23 03:10:45;;;;;;;43.28;27.90;;;9.80;99.90;;;;;;5044199;28;20025;-34
2023/04/23 03:13:10;;;;;;;42.10;27.17;;;9.80;99.90;;;;;;5043837;28;20033;-33
2023/04/23 03:15:36;;;;;;;46.67;29.30;;;9.80;99.90;;;;;;5043635;28;20097;-35
2023/04/23 03:18:03;;;;;;;44.90;28.20;;;9.70;99.90;;;;;;5043363;28;20531;-33
2023/04/23 03:20:28;;;;;;;40.70;26.60;;;9.70;99.90;;;;;;5044164;28;20083;-34
2023/04/23 03:22:54;;;;;;;41.35;26.77;;;9.70;99.90;;;;;;5043007;28;20020;-33
2023/04/23 03:25:24;;;;;;;42.42;26.50;;;9.60;99.90;;;;;;5044622;28;20027;-35
2023/04/23 03:27:50;;;;;;;42.92;27.17;;;9.60;99.90;;;;;;5042476;28;20060;-34
2023/04/23 03:30:16;;;;;;;38.75;25.52;;;9.60;99.90;;;;;;5037936;28;20044;-34
2023/04/23 03:32:42;;;;;;;41.65;26.65;;;9.50;99.90;;;;;;5043924;28;20834;-35
2023/04/23 03:35:08;;;;;;;43.50;27.08;;;9.50;99.90;;;;;;5042918;28;20563;-34
2023/04/23 03:37:36;;;;;;;41.25;27.13;;;9.50;99.90;;;;;;5043223;28;20496;-34
2023/04/23 03:40:06;;;;;;;39.60;25.77;;;9.50;99.90;;;;;;5043936;28;20033;-33
2023/04/23 03:42:33;;;;;;;38.80;24.75;;;9.50;99.90;;;;;;5044217;28;20039;-34
2023/04/23 03:44:59;;;;;;;38.65;25.42;;;9.40;99.90;;;;;;5043018;28;20036;-34
2023/04/23 03:47:25;;;;;;;37.58;24.45;;;9.40;99.90;;;;;;5043784;28;20029;-34
2023/04/23 03:49:51;;;;;;;39.20;25.08;;;9.40;99.90;;;;;;5042329;28;20088;-34
2023/04/23 03:52:20;;;;;;;38.63;25.25;;;9.50;99.90;;;;;;5043075;28;20057;-34
2023/04/23 03:54:45;;;;;;;37.35;24.38;;;9.50;99.90;;;;;;5043763;28;20017;-34
2023/04/23 03:57:11;;;;;;;36.55;24.02;;;9.50;99.90;;;;;;5042807;28;20033;-35
2023/04/23 03:59:37;;;;;;;40.95;24.23;;;9.50;99.90;;;;;;5042986;28;20751;-35
2023/04/23 04:02:03;;;;;;;36.92;23.75;;;9.50;99.90;;;;;;5042802;28;20391;-34
2023/04/23 04:04:29;;;;;;;37.38;24.55;;;9.50;99.90;;;;;;5042054;28;20025;-33
2023/04/23 04:06:55;;;;;;;36.97;23.95;;;9.50;99.90;;;;;;5043323;28;20025;-33
2023/04/23 04:09:21;;;;;;;33.88;23.17;;;9.50;99.90;;;;;;5042994;28;20079;-33
2023/04/23 04:11:47;;;;;;;37.40;24.80;;;9.50;99.90;;;;;;5040655;28;20029;-34
2023/04/23 04:14:13;;;;;;;35.15;24.20;;;9.50;99.90;;;;;;5042730;28;20032;-34
2023/04/23 04:16:39;;;;;;;34.80;23.40;;;9.50;99.90;;;;;;5042805;28;20025;-34
2023/04/23 04:19:06;;;;;;;33.67;23.55;;;9.50;99.90;;;;;;5042273;28;20025;-34
2023/04/23 04:21:32;;;;;;;36.60;24.15;;;9.50;99.90;;;;;;5042757;28;20159;-34
2023/04/23 04:24:00;;;;;;;39.03;23.42;;;9.50;99.90;;;;;;5043394;28;20446;-33
2023/04/23 04:26:31;;;;;;;35.28;23.65;;;9.50;99.90;;;;;;5042385;28;20059;-34
2023/04/23 04:29:03;;;;;;;36.30;22.80;;;9.60;99.90;;;;;;5022642;28;20136;-33
2023/04/23 04:31:29;;;;;;;34.70;22.90;;;9.60;99.90;;;;;;5038016;28;20363;-34
2023/04/23 04:33:55;;;;;;;35.38;23.20;;;9.60;99.90;;;;;;5042070;28;20475;-34
2023/04/23 04:36:24;;;;;;;36.75;23.48;;;9.60;99.90;;;;;;5043462;28;20032;-34
2023/04/23 04:38:50;;;;;;;36.05;23.92;;;9.60;99.90;;;;;;5042654;28;20021;-34
2023/04/23 04:41:18;;;;;;;34.70;23.48;;;9.60;99.90;;;;;;5042553;28;20063;-34
2023/04/23 04:43:50;;;;;;;34.42;24.17;;;9.50;99.90;;;;;;5042546;28;20023;-33
2023/04/23 04:46:18;;;;;;;35.05;23.60;;;9.50;99.90;;;;;;5041836;28;20111;-34
2023/04/23 04:48:44;;;;;;;34.78;23.77;;;9.60;99.90;;;;;;5042081;28;20028;-32
2023/04/23 04:51:09;;;;;;;36.17;23.63;;;9.60;99.90;;;;;;5041957;28;20021;-34
2023/04/23 04:53:35;;;;;;;34.85;23.20;;;9.70;99.90;;;;;;5042076;28;20029;-34
2023/04/23 04:56:01;;;;;;;34.97;23.55;;;9.80;99.90;;;;;;5042192;28;20020;-35
2023/04/23 04:58:26;;;;;;;35.17;23.33;;;9.80;99.90;;;;;;5041902;28;20040;-33
2023/04/23 05:00:53;;;;;;;34.78;23.88;;;9.90;99.90;;;;;;5041297;28;20033;-35
2023/04/23 05:03:22;;;;;;;35.22;23.02;;;9.90;99.90;;;;;;5038900;28;20021;-34
2023/04/23 05:05:47;;;;;;;34.28;23.23;;;10.00;99.90;;;;;;5041737;28;20064;-33
2023/04/23 05:08:17;;;;;;;37.60;22.83;;;10.00;99.90;;;;;;5041281;28;20520;-34
2023/04/23 05:10:43;;;;;;;32.75;22.80;;;10.10;99.90;;;;;;5041201;28;20052;-34
2023/04/23 05:13:09;;;;;;;30.23;21.85;;;10.10;99.90;;;;;;5040890;28;20033;-32
2023/04/23 05:15:35;;;;;;;33.50;22.77;;;10.10;99.90;;;;;;5040609;28;20024;-34
2023/04/23 05:18:03;;;;;;;29.52;21.13;;;10.20;99.90;;;;;;5041394;28;20033;-35
2023/04/23 05:20:29;;;;;;;31.13;21.08;;;10.20;99.90;;;;;;5041226;28;20061;-34
2023/04/23 05:22:55;;;;;;;31.75;21.33;;;10.20;99.90;;;;;;5040420;28;20063;-34
2023/04/23 05:25:20;;;;;;;32.50;21.52;;;10.20;99.90;;;;;;5041043;28;20429;-35
2023/04/23 05:27:46;;;;;;;30.92;20.70;;;10.30;99.90;;;;;;5041048;28;20020;-34
2023/04/23 05:30:11;;;;;;;28.30;19.45;;;10.30;99.90;;;;;;5041280;28;20029;-35
2023/04/23 05:32:40;;;;;;;29.10;20.50;;;10.30;99.90;;;;;;5041148;28;20134;-35
2023/04/23 05:35:06;;;;;;;28.38;20.30;;;10.30;99.90;;;;;;5040576;28;20031;-34
2023/04/23 05:37:32;;;;;;;27.75;19.42;;;10.40;99.90;;;;;;5041482;28;20024;-34
2023/04/23 05:39:57;;;;;;;29.10;19.88;;;10.40;99.90;;;;;;5041402;28;20032;-34
2023/04/23 05:42:23;;;;;;;27.00;19.48;;;10.30;99.90;;;;;;5040552;28;20027;-34
2023/04/23 05:44:58;;;;;;;27.92;19.48;;;10.30;99.90;;;;;;5041010;28;20627;-34
2023/04/23 05:47:23;;;;;;;27.05;19.42;;;10.30;99.90;;;;;;5040775;28;20028;-35
2023/04/23 05:49:49;;;;;;;25.05;18.52;;;10.40;99.90;;;;;;5040450;28;20045;-34
2023/04/23 05:52:14;;;;;;;25.80;19.00;;;10.40;99.90;;;;;;5041203;28;20480;-35
2023/04/23 05:54:41;;;;;;;22.80;16.63;;;10.50;99.90;;;;;;5040424;28;20033;-34
2023/04/23 05:57:06;;;;;;;25.25;18.23;;;10.60;99.90;;;;;;5040334;28;20140;-35
2023/04/23 05:59:32;;;;;;;25.45;18.45;;;10.70;99.90;;;;;;5041282;28;20025;-34
2023/04/23 06:02:01;;;;;;;25.17;18.40;;;10.70;99.90;;;;;;5041258;28;20021;-34
2023/04/23 06:04:26;;;;;;;25.33;18.90;;;10.70;99.90;;;;;;5040577;28;20079;-34
2023/04/23 06:06:52;;;;;;;24.05;17.40;;;10.70;99.90;;;;;;5041312;28;20428;-34
2023/04/23 06:09:17;;;;;;;24.20;17.48;;;10.60;99.90;;;;;;5040877;28;20075;-33
2023/04/23 06:11:43;;;;;;;22.50;17.00;;;10.60;99.90;;;;;;5039909;28;20472;-35
2023/04/23 06:14:09;;;;;;;23.52;17.13;;;10.50;99.90;;;;;;5040422;28;20033;-34
2023/04/23 06:16:35;;;;;;;20.80;15.77;;;10.50;99.90;;;;;;5041512;28;20159;-34
2023/04/23 06:19:03;;;;;;;17.88;13.93;;;10.50;99.90;;;;;;5039810;28;20516;-34
2023/04/23 06:21:29;;;;;;;19.17;15.38;;;10.50;99.90;;;;;;5040368;28;20191;-37
2023/04/23 06:24:00;;;;;;;19.35;14.63;;;10.50;99.90;;;;;;5041079;28;20029;-34
2023/04/23 06:26:29;;;;;;;20.63;16.45;;;10.50;99.90;;;;;;5040286;28;20036;-34
2023/04/23 06:28:55;;;;;;;18.85;15.25;;;10.50;99.90;;;;;;5040610;28;20033;-34
2023/04/23 06:31:20;;;;;;;23.35;16.83;;;10.50;99.90;;;;;;5040360;28;20020;-34
2023/04/23 06:33:46;;;;;;;18.15;15.35;;;10.60;99.90;;;;;;5041993;28;20488;-34
2023/04/23 06:36:13;;;;;;;17.02;14.85;;;10.60;99.90;;;;;;5044771;28;20017;-33
2023/04/23 06:38:39;;;;;;;17.38;13.57;;;10.70;99.90;;;;;;5044182;28;20452;-34
2023/04/23 06:41:15;;;;;;;17.15;13.82;;;10.70;99.90;;;;;;5045020;28;20423;-34
2023/04/23 06:43:41;;;;;;;16.15;13.30;;;10.80;99.90;;;;;;5045101;28;20025;-34
2023/04/23 06:46:06;;;;;;;15.55;13.82;;;10.80;99.90;;;;;;5043773;28;20037;-35
2023/04/23 06:48:32;;;;;;;15.30;13.50;;;10.90;99.90;;;;;;5044970;28;20075;-33
2023/04/23 06:50:58;;;;;;;15.27;12.13;;;10.90;99.90;;;;;;5043944;28;20064;-35
2023/04/23 06:53:23;;;;;;;15.90;12.95;;;11.00;99.90;;;;;;5043901;28;20032;-33
2023/04/23 06:55:50;;;;;;;14.02;12.40;;;11.00;99.90;;;;;;5044801;28;20111;-44
2023/04/23 06:58:18;;;;;;;13.60;11.93;;;11.10;99.90;;;;;;5044860;28;20028;-33
2023/04/23 07:00:44;;;;;;;11.23;9.85;;;11.10;99.90;;;;;;5043826;28;20044;-34
2023/04/23 07:03:10;;;;;;;17.38;14.10;;;11.20;99.90;;;;;;5044348;28;20040;-35
2023/04/23 07:05:35;;;;;;;15.85;13.32;;;11.20;99.90;;;;;;5044076;28;20032;-34
2023/04/23 07:08:01;;;;;;;16.98;13.35;;;11.30;99.90;;;;;;5043426;28;20060;-34
2023/04/23 07:10:26;;;;;;;15.52;13.50;;;11.30;99.90;;;;;;5043968;28;20028;-35
2023/04/23 07:12:52;;;;;;;13.07;11.68;;;11.40;99.90;;;;;;5042704;28;20083;-35
2023/04/23 07:15:18;;;;;;;13.07;11.73;;;11.40;99.90;;;;;;5042455;28;20032;-34
2023/04/23 07:17:43;;;;;;;12.45;11.15;;;11.50;99.90;;;;;;5043238;28;20024;-34
2023/04/23 07:20:09;;;;;;;14.95;13.00;;;11.50;99.90;;;;;;5042889;28;20052;-34
2023/04/23 07:22:34;;;;;;;15.45;12.20;;;11.60;99.90;;;;;;5045180;28;20028;-36
2023/04/23 07:25:01;;;;;;;14.38;12.63;;;11.60;99.90;;;;;;5051655;28;20024;-34
2023/04/23 07:27:26;;;;;;;14.57;12.27;;;11.70;99.90;;;;;;5045342;28;20025;-33
2023/04/23 07:29:52;;;;;;;14.90;12.55;;;11.80;99.90;;;;;;5042962;28;20032;-33
2023/04/23 07:32:18;;;;;;;13.18;11.65;;;11.80;99.90;;;;;;5042486;28;20029;-35
2023/04/23 07:34:43;;;;;;;11.98;10.77;;;11.90;99.90;;;;;;5042048;28;20025;-34
2023/04/23 07:37:09;;;;;;;11.73;10.50;;;11.90;99.90;;;;;;5043156;28;20097;-35
2023/04/23 07:39:34;;;;;;;11.63;10.40;;;12.00;99.90;;;;;;5043043;28;20738;-35
2023/04/23 07:42:01;;;;;;;13.05;10.15;;;12.00;99.90;;;;;;5041897;28;20036;-35
2023/04/23 07:44:26;;;;;;;10.35;9.32;;;12.10;99.90;;;;;;5042758;28;20029;-34
2023/04/23 07:46:55;;;;;;;8.85;7.95;;;12.10;99.90;;;;;;5042679;28;20106;-35
2023/04/23 07:49:20;;;;;;;9.48;8.45;;;12.20;99.90;;;;;;5043368;28;20036;-33
2023/04/23 07:51:47;;;;;;;11.63;9.55;;;12.20;99.90;;;;;;5043657;28;20388;-36
2023/04/23 07:54:13;;;;;;;11.50;9.52;;;12.30;99.90;;;;;;5042242;28;20032;-34
2023/04/23 07:56:38;;;;;;;9.90;8.90;;;12.30;99.90;;;;;;5050602;28;20025;-33
2023/04/23 07:59:05;;;;;;;10.98;8.70;;;12.40;99.90;;;;;;5041475;28;20029;-34
2023/04/23 08:01:31;;;;;;;10.25;8.45;;;12.50;99.90;;;;;;5049213;28;20027;-35
2023/04/23 08:03:59;;;;;;;10.05;8.95;;;12.50;99.90;;;;;;5045033;28;20048;-34
2023/04/23 08:06:25;;;;;;;10.75;8.45;;;12.60;99.90;;;;;;5047483;28;20604;-35
2023/04/23 08:08:51;;;;;;;7.35;6.60;;;12.70;99.90;;;;;;5044380;28;20037;-34
2023/04/23 08:11:20;;;;;;;10.63;8.07;;;12.80;99.90;;;;;;5045094;28;20024;-33
2023/04/23 08:13:46;;;;;;;7.32;6.00;;;12.80;99.90;;;;;;5054644;28;20036;-35
2023/04/23 08:16:12;;;;;;;9.88;8.10;;;12.80;99.90;;;;;;5055065;28;20513;-33
2023/04/23 08:18:40;;;;;;;9.65;7.63;;;12.90;99.90;;;;;;5047957;28;20031;-34
2023/04/23 08:21:06;;;;;;;9.27;7.63;;;12.90;99.90;;;;;;5042564;28;20039;-34
2023/04/23 08:23:34;;;;;;;9.35;7.72;;;12.90;99.90;;;;;;5052764;28;20029;-34
2023/04/23 08:26:01;;;;;;;9.20;7.18;;;13.00;99.90;;;;;;5054016;28;20085;-34
2023/04/23 08:28:26;;;;;;;8.93;7.75;;;13.10;99.90;;;;;;5044097;28;20020;-33
2023/04/23 08:30:52;;;;;;;9.57;7.30;;;13.20;99.90;;;;;;5047130;28;20033;-33
2023/04/23 08:33:18;;;;;;;8.48;7.53;;;13.30;99.90;;;;;;5044043;28;20059;-34
2023/04/23 08:35:43;;;;;;;7.18;5.93;;;13.40;99.90;;;;;;5043621;28;20412;-35
2023/04/23 08:38:09;;;;;;;6.55;4.75;;;13.50;99.90;;;;;;5043659;28;20017;-34
2023/04/23 08:40:37;;;;;;;8.00;6.95;;;13.60;99.90;;;;;;5042441;28;20036;-34
2023/04/23 08:43:55;;;;;;;8.70;7.47;;;13.70;99.90;;;;;;5041973;28;20035;-34
2023/04/23 08:46:22;;;;;;;10.25;8.07;;;13.80;99.90;;;;;;5022482;28;20608;-34
2023/04/23 08:48:51;;;;;;;8.48;6.55;;;13.90;99.90;;;;;;5041095;28;20059;-34
2023/04/23 08:51:19;;;;;;;9.65;7.18;;;14.00;99.90;;;;;;5041993;28;20033;-35
2023/04/23 08:53:53;;;;;;;9.43;7.50;;;14.00;99.90;;;;;;5041867;28;20112;-34
2023/04/23 08:56:20;;;;;;;7.38;6.65;;;14.00;99.90;;;;;;5042149;28;20021;-34
2023/04/23 08:58:46;;;;;;;8.05;6.85;;;14.10;99.90;;;;;;5042016;28;20108;-34
2023/04/23 09:01:13;;;;;;;6.65;5.60;;;14.10;99.90;;;;;;5041898;28;20099;-33
2023/04/23 09:03:39;;;;;;;7.18;5.57;;;14.10;99.90;;;;;;5040481;28;20087;-34
2023/04/23 09:06:05;;;;;;;12.30;6.80;;;14.20;99.90;;;;;;5039846;28;20029;-33
2023/04/23 09:08:37;;;;;;;8.35;5.80;;;14.30;99.90;;;;;;5041234;28;20044;-33
2023/04/23 09:11:04;;;;;;;8.02;5.65;;;14.40;99.90;;;;;;5041188;28;20025;-33
2023/04/23 09:13:30;;;;;;;9.18;6.40;;;14.40;99.90;;;;;;5040532;28;20036;-33
2023/04/23 09:15:56;;;;;;;8.07;5.30;;;14.50;99.90;;;;;;5041887;28;20037;-34
2023/04/23 09:18:22;;;;;;;5.93;4.75;;;14.50;99.90;;;;;;5041625;28;20049;-34
2023/04/23 09:20:49;;;;;;;7.47;5.10;;;14.50;99.90;;;;;;5040372;28;20031;-34
2023/04/23 09:23:15;;;;;;;7.93;4.65;;;14.60;99.90;;;;;;5041458;28;20728;-35
2023/04/23 09:25:41;;;;;;;8.15;4.30;;;14.60;99.90;;;;;;5041241;28;20075;-33
2023/04/23 09:28:14;;;;;;;9.98;4.63;;;14.70;99.90;;;;;;5041107;28;20516;-36
2023/04/23 09:30:44;;;;;;;5.10;3.30;;;14.70;99.90;;;;;;5040969;28;20049;-34
2023/04/23 09:33:15;;;;;;;6.43;3.28;;;14.80;99.90;;;;;;5040720;28;20077;-34
2023/04/23 09:35:42;;;;;;;5.03;3.05;;;14.90;99.90;;;;;;5040326;28;20054;-35
2023/04/23 09:38:09;;;;;;;7.38;4.30;;;15.00;99.90;;;;;;5041070;28;20024;-35
2023/04/23 09:40:36;;;;;;;7.28;4.05;;;15.00;99.90;;;;;;5040876;28;20029;-35
2023/04/23 09:43:03;;;;;;;7.15;4.07;;;15.10;99.90;;;;;;5040603;28;20889;-34
2023/04/23 09:45:29;;;;;;;8.23;3.60;;;15.30;99.90;;;;;;5040875;28;20059;-35
2023/04/23 09:47:57;;;;;;;7.38;2.90;;;15.40;99.90;;;;;;5041371;28;20029;-36
2023/04/23 09:50:37;;;;;;;6.57;3.00;;;15.50;99.90;;;;;;5040080;28;20041;-34
2023/04/23 09:53:04;;;;;;;5.00;2.70;;;15.50;99.90;;;;;;5037977;28;20033;-34
2023/04/23 09:55:51;;;;;;;7.03;3.03;;;15.60;99.90;;;;;;5040121;28;20032;-34
2023/04/23 09:58:18;;;;;;;6.00;3.00;;;15.70;99.90;;;;;;5041181;28;20029;-35
2023/04/23 10:00:43;;;;;;;7.57;2.80;;;15.70;99.90;;;;;;5040936;28;20029;-34
2023/04/23 10:03:10;;;;;;;6.43;2.63;;;15.80;99.90;;;;;;5039578;28;20031;-35
2023/04/23 10:05:40;;;;;;;7.40;2.53;;;15.90;99.90;;;;;;5040096;28;20781;-35
2023/04/23 10:08:07;;;;;;;7.20;2.60;;;15.90;99.90;;;;;;5038745;28;20519;-36
2023/04/23 10:10:33;;;;;;;4.22;2.33;;;16.00;99.90;;;;;;5040581;28;20791;-34
2023/04/23 10:13:00;;;;;;;4.82;1.83;;;16.00;99.90;;;;;;5040429;28;20037;-35
2023/04/23 10:15:26;;;;;;;6.85;2.63;;;16.10;99.90;;;;;;5040660;28;20032;-34
2023/04/23 10:17:53;;;;;;;5.57;1.85;;;16.10;99.90;;;;;;5038975;28;20069;-35
2023/04/23 10:20:20;;;;;;;5.13;2.15;;;16.20;99.90;;;;;;5040788;28;20032;-35
2023/04/23 10:22:47;;;;;;;6.55;1.92;;;16.30;99.90;;;;;;5040275;28;20074;-35
2023/04/23 10:25:13;;;;;;;5.65;1.85;;;16.40;99.90;;;;;;5040309;28;20025;-35
2023/04/23 10:27:40;;;;;;;6.57;1.90;;;16.50;99.90;;;;;;5039741;28;21162;-34
2023/04/23 10:30:08;;;;;;;5.93;1.90;;;16.60;99.90;;;;;;5040263;28;20847;-36
2023/04/23 10:32:34;;;;;;;4.68;1.65;;;16.70;99.90;;;;;;5039312;28;20047;-34
2023/04/23 10:35:00;;;;;;;6.50;1.98;;;16.70;99.90;;;;;;5040347;28;20021;-35
2023/04/23 10:37:27;;;;;;;3.42;1.40;;;16.80;99.90;;;;;;5038930;28;21312;-34
2023/04/23 10:39:55;;;;;;;4.60;1.60;;;16.90;99.90;;;;;;5039303;28;20024;-36
2023/04/23 10:42:21;;;;;;;4.43;1.52;;;16.90;99.90;;;;;;5040358;28;20028;-34
2023/04/23 10:44:47;;;;;;;3.38;1.38;;;17.00;99.90;;;;;;5039662;28;20052;-36
2023/04/23 10:47:16;;;;;;;5.25;1.60;;;17.10;99.90;;;;;;5040319;28;20742;-34
2023/04/23 10:49:45;;;;;;;3.92;1.38;;;17.30;99.90;;;;;;5039873;28;20044;-34
2023/04/23 10:52:17;;;;;;;2.65;1.33;;;17.40;99.90;;;;;;5038829;28;20529;-40
2023/04/23 10:54:48;;;;;;;4.68;1.80;;;17.50;99.90;;;;;;5039862;28;20067;-33
2023/04/23 10:57:14;;;;;;;5.57;1.45;;;17.70;99.90;;;;;;5039934;28;20039;-35
2023/04/23 10:59:54;;;;;;;4.68;1.38;;;17.80;99.90;;;;;;5038622;28;20036;-33
2023/04/23 11:02:23;;;;;;;2.80;1.40;;;17.90;99.90;;;;;;5039935;28;20747;-36
2023/04/23 11:04:58;;;;;;;6.65;1.50;;;17.90;99.90;;;;;;5039609;28;20041;-34
2023/04/23 11:07:31;;;;;;;4.00;1.33;;;18.10;99.90;;;;;;5039226;28;20419;-34
2023/04/23 11:10:00;;;;;;;5.65;2.25;;;18.10;99.90;;;;;;5038188;28;20174;-35
2023/04/23 11:12:31;;;;;;;4.15;1.50;;;18.20;99.90;;;;;;5028936;28;20033;-35
2023/04/23 11:15:00;;;;;;;2.90;1.42;;;18.30;99.90;;;;;;5035019;28;20039;-35
2023/04/23 11:17:31;;;;;;;4.63;1.38;;;18.50;99.90;;;;;;5039409;28;20135;-35
2023/04/23 11:20:22;;;;;;;3.95;1.55;;;18.60;99.90;;;;;;5040366;28;20070;-34
2023/04/23 11:22:49;;;;;;;5.18;1.35;;;18.60;99.90;;;;;;5023180;28;20391;-34
2023/04/23 11:25:23;;;;;;;2.95;1.38;;;18.60;99.90;;;;;;5038506;28;20913;-34
2023/04/23 11:27:50;;;;;;;3.75;1.52;;;18.60;99.90;;;;;;5041904;28;20123;-34
2023/04/23 11:30:19;;;;;;;2.63;1.17;;;18.60;99.90;;;;;;5043239;28;20021;-34
2023/04/23 11:32:47;;;;;;;2.60;1.10;;;18.60;99.90;;;;;;5043530;28;20148;-34
2023/04/23 11:35:14;;;;;;;3.05;1.40;;;18.60;99.90;;;;;;5043329;28;20021;-35
2023/04/23 11:37:41;;;;;;;4.40;1.63;;;18.60;99.90;;;;;;5042711;28;20017;-36
2023/04/23 11:40:09;;;;;;;2.55;1.25;;;18.60;99.90;;;;;;5042466;28;20132;-35
2023/04/23 11:42:49;;;;;;;4.20;1.17;;;18.70;99.90;;;;;;5041806;28;20098;-35
2023/04/23 11:45:23;;;;;;;3.03;1.17;;;18.80;99.90;;;;;;5042921;28;20432;-34
2023/04/23 11:47:57;;;;;;;4.80;1.20;;;18.80;99.90;;;;;;5042707;28;20575;-34
2023/04/23 11:50:24;;;;;;;3.00;1.48;;;18.90;99.90;;;;;;5043023;28;20857;-34
2023/04/23 11:52:51;;;;;;;3.70;1.25;;;18.90;99.90;;;;;;5043145;28;20055;-36
2023/04/23 11:55:20;;;;;;;3.97;1.10;;;19.00;99.90;;;;;;5042906;28;20800;-35
2023/04/23 11:57:51;;;;;;;2.58;1.13;;;19.10;99.90;;;;;;5043213;28;20032;-42
2023/04/23 12:00:19;;;;;;;4.05;1.33;;;19.20;99.90;;;;;;5043494;28;20038;-35
2023/04/23 12:02:58;;;;;;;4.38;1.15;;;19.30;99.90;;;;;;5031273;28;20025;-34
2023/04/23 12:05:41;;;;;;;3.35;1.10;;;19.40;99.90;;;;;;5043346;28;20127;-34
2023/04/23 12:08:15;;;;;;;2.88;1.15;;;19.40;99.90;;;;;;5033998;28;20028;-34
2023/04/23 12:10:51;;;;;;;2.95;1.27;;;19.40;99.90;;;;;;5042040;28;20100;-35
2023/04/23 12:13:20;;;;;;;2.95;1.48;;;19.50;99.90;;;;;;5043025;28;20114;-35
2023/04/23 12:15:51;;;;;;;5.60;1.35;;;19.50;99.90;;;;;;5042186;28;20032;-34
2023/04/23 12:18:17;;;;;;;5.22;1.40;;;19.50;99.90;;;;;;5031915;28;20048;-35
2023/04/23 12:20:43;;;;;;;2.42;1.00;;;19.50;99.90;;;;;;5042452;28;20040;-34
2023/04/23 12:23:09;;;;;;;5.25;1.20;;;19.50;99.90;;;;;;5041885;28;20060;-34
2023/04/23 12:25:36;;;;;;;3.55;1.30;;;19.50;99.90;;;;;;5042613;28;20764;-35
2023/04/23 12:28:03;;;;;;;2.92;1.23;;;19.50;99.90;;;;;;5042267;28;20025;-36
2023/04/23 12:30:33;;;;;;;3.10;1.30;;;19.40;99.50;;;;;;5041267;28;20033;-35
2023/04/23 12:33:05;;;;;;;2.58;1.10;;;19.40;99.70;;;;;;5041370;28;20036;-35
2023/04/23 12:35:57;;;;;;;1.40;1.15;;;19.40;99.90;;;;;;5042165;28;20029;-36
2023/04/23 12:38:34;;;;;;;3.50;1.10;;;19.50;99.90;;;;;;5039948;28;20041;-35
2023/04/23 12:41:00;;;;;;;5.18;1.23;;;19.50;99.90;;;;;;5042999;28;20029;-36